Time;durP1;ratioP1;P1;durP2;ratioP2;P2;SDS_P1;SDS_P2;PMS_P1;PMS_P2;Temp;Humidity;BMP_temperature;BMP_pressure;BME280_temperature;BME280_humidity;BME280_pressure;Samples;Min_cycle;Max_cycle;Signal;HPM_P1;HPM_P2
2021/10/20 00:00:43;;;;;;;12.80;9.90;;;;;;;10.90;71.82;99947.08;230412;1193;139755;-73
2021/10/20 00:05:48;;;;;;;12.60;9.10;;;;;;;10.92;71.63;99939.17;230425;1192;142616;-71
2021/10/20 00:11:14;;;;;;;13.70;9.50;;;;;;;10.96;71.73;99941.56;229343;1192;141291;-71
2021/10/20 00:16:23;;;;;;;14.90;9.20;;;;;;;11.02;71.86;99938.64;227945;1193;139919;-71
2021/10/20 00:21:38;;;;;;;12.40;8.90;;;;;;;11.05;71.76;99934.53;228008;1192;139108;-70
2021/10/20 00:27:22;;;;;;;15.20;9.40;;;;;;;11.08;71.82;99934.56;228538;1193;140217;-70
2021/10/20 00:32:50;;;;;;;15.50;10.90;;;;;;;11.10;71.59;99924.80;228101;1192;139782;-71
2021/10/20 00:38:09;;;;;;;13.40;10.50;;;;;;;11.08;71.76;99911.09;229172;1193;140804;-71
2021/10/20 00:43:42;;;;;;;;;;;;;;;;;;;;;
2021/10/20 00:48:59;;;;;;;13.40;10.20;;;;;;;11.08;71.88;99883.09;229373;1192;139503;-71
2021/10/20 00:54:29;;;;;;;;;;;;;;;;;;;;;
2021/10/20 00:59:47;;;;;;;9.70;8.70;;;;;;;11.09;71.81;99877.65;228671;1192;138936;-71
2021/10/20 01:05:19;;;;;;;;;;;;;;;;;;;;;
2021/10/20 01:10:39;;;;;;;16.70;10.20;;;;;;;11.10;72.39;99866.80;228442;1193;141586;-72
2021/10/20 01:16:30;;;;;;;12.60;9.50;;;;;;;11.04;72.67;99858.88;229484;1192;139455;-72
2021/10/20 01:22:10;;;;;;;;;;;;;;;;;;;;;
2021/10/20 01:27:34;;;;;;;11.80;9.20;;;;;;;10.98;73.31;99833.44;228434;1191;140520;-71
2021/10/20 01:33:01;;;;;;;;;;;;;;;;;;;;;
2021/10/20 01:38:06;;;;;;;12.40;9.70;;;;;;;11.03;73.77;99818.09;228182;1192;140860;-71
2021/10/20 01:43:10;;;;;;;9.70;7.60;;;;;;;11.06;73.46;99825.30;229728;1191;140137;-71
2021/10/20 01:48:54;;;;;;;;;;;;;;;;;;;;;
2021/10/20 01:53:59;;;;;;;13.40;10.30;;;;;;;11.12;73.58;99811.66;228760;1192;153163;-71
2021/10/20 01:59:06;;;;;;;14.80;10.10;;;;;;;11.16;73.69;99801.73;230964;1191;139719;-71
2021/10/20 02:04:44;;;;;;;14.40;9.80;;;;;;;11.24;73.51;99793.81;230910;1191;141505;-71
2021/10/20 02:09:52;;;;;;;10.90;8.50;;;;;;;11.28;73.35;99780.98;229692;1184;140232;-69
2021/10/20 02:14:59;;;;;;;14.80;9.20;;;;;;;11.34;73.63;99773.66;230839;1192;139583;-70
2021/10/20 02:20:36;;;;;;;;;;;;;;;;;;;;;
2021/10/20 02:25:52;;;;;;;;;;;;;;;;;;;;;
2021/10/20 02:31:07;;;;;;;13.50;9.70;;;;;;;11.48;73.54;99775.70;228173;1192;139950;-70
2021/10/20 02:36:39;;;;;;;13.50;8.60;;;;;;;11.51;73.46;99778.10;228740;1193;139584;-69
2021/10/20 02:41:56;;;;;;;12.70;7.50;;;;;;;11.55;73.47;99770.10;228846;1193;139922;-70
2021/10/20 02:47:18;;;;;;;10.80;8.80;;;;;;;11.55;73.60;99770.86;229079;1192;138996;-70
2021/10/20 02:52:49;;;;;;;;;;;;;;;;;;;;;
2021/10/20 02:58:02;;;;;;;10.50;6.00;;;;;;;11.63;73.48;99746.41;228657;1192;139884;-72
2021/10/20 03:03:45;;;;;;;;;;;;;;;;;;;;;
2021/10/20 03:08:50;;;;;;;12.10;7.90;;;;;;;11.68;73.54;99739.81;227901;1192;140358;-72
2021/10/20 03:14:39;;;;;;;11.70;7.70;;;;;;;11.72;73.52;99738.62;228222;1192;143152;-72
2021/10/20 03:20:14;;;;;;;;;;;;;;;;;;;;;
2021/10/20 03:25:19;;;;;;;11.90;8.70;;;;;;;11.79;73.60;99726.27;228752;1191;139398;-71
2021/10/20 03:30:51;;;;;;;;;;;;;;;;;;;;;
2021/10/20 03:36:09;;;;;;;9.50;7.90;;;;;;;11.90;73.63;99724.36;228281;1193;141683;-71
2021/10/20 03:41:56;;;;;;;;;;;;;;;;;;;;;
2021/10/20 03:47:45;;;;;;;10.90;8.20;;;;;;;11.79;74.58;99734.38;228919;1193;125226;-71
2021/10/20 03:52:47;;;;;;;12.00;8.50;;;;;;;11.72;74.75;99731.89;227873;1192;140373;-71
2021/10/20 03:58:23;;;;;;;10.00;7.40;;;;;;;11.66;75.13;99724.79;229480;1191;140000;-72
2021/10/20 04:03:56;;;;;;;9.70;7.80;;;;;;;11.69;75.38;99712.29;229936;1191;140789;-71
2021/10/20 04:09:31;;;;;;;9.30;6.90;;;;;;;11.72;75.76;99701.28;228410;1193;140389;-71
2021/10/20 04:15:08;;;;;;;11.30;6.90;;;;;;;11.76;75.81;99692.08;228530;1192;139419;-71
2021/10/20 04:20:17;;;;;;;10.10;6.70;;;;;;;11.79;76.24;99688.08;228866;1193;139377;-71
2021/10/20 04:25:21;;;;;;;16.90;9.60;;;;;;;11.86;75.94;99692.56;230545;1191;140229;-70
2021/10/20 04:30:25;;;;;;;18.10;9.00;;;;;;;11.91;76.14;99687.67;230909;1192;141107;-71
2021/10/20 04:35:39;;;;;;;8.00;6.90;;;;;;;11.92;75.97;99680.21;228807;1192;140795;-72
2021/10/20 04:41:26;;;;;;;;;;;;;;;;;;;;;
2021/10/20 04:46:35;;;;;;;7.80;7.10;;;;;;;12.01;75.95;99668.08;229002;1192;140169;-72
2021/10/20 04:52:12;;;;;;;;;;;;;;;;;;;;;
2021/10/20 04:57:45;;;;;;;6.00;5.40;;;;;;;12.11;76.18;99671.52;228410;1193;139634;-72
2021/10/20 05:03:17;;;;;;;8.50;6.20;;;;;;;12.15;76.34;99675.46;228615;1192;139551;-73
2021/10/20 05:08:38;;;;;;;9.00;7.50;;;;;;;12.18;76.39;99674.60;228252;1192;139094;-71
2021/10/20 05:14:11;;;;;;;11.10;6.80;;;;;;;12.23;76.20;99678.02;228191;1192;140918;-72
2021/10/20 05:19:15;;;;;;;7.70;5.90;;;;;;;12.27;76.50;99683.46;228411;1192;140496;-69
2021/10/20 05:24:40;;;;;;;;;;;;;;;;;;;;;
2021/10/20 05:29:57;;;;;;;;;;;;;;;12.17;76.83;99681.06;229209;1193;140418;-72
2021/10/20 05:35:17;;;;;;;;;;;;;;;;;;;;;
2021/10/20 05:40:54;;;;;;;;;;;;;;;;;;;;;
2021/10/20 05:46:14;;;;;;;10.40;8.30;;;;;;;12.34;76.63;99650.86;228463;1191;139732;-71
2021/10/20 05:51:29;;;;;;;9.70;6.30;;;;;;;12.38;76.64;99650.64;227726;1193;140112;-70
2021/10/20 05:56:37;;;;;;;6.50;5.80;;;;;;;12.43;76.66;99646.48;228447;1193;139932;-70
2021/10/20 06:01:46;;;;;;;5.80;5.20;;;;;;;12.50;76.48;99640.64;229038;1192;140285;-70
2021/10/20 06:06:57;;;;;;;5.70;4.80;;;;;;;12.57;76.49;99634.75;229704;1192;139605;-72
2021/10/20 06:12:09;;;;;;;9.80;5.30;;;;;;;12.63;76.54;99633.76;228186;1193;139279;-73
2021/10/20 06:18:17;;;;;;;7.20;6.50;;;;;;;12.69;76.14;99630.09;228177;1192;163955;-71
2021/10/20 06:23:31;;;;;;;9.80;6.10;;;;;;;12.75;76.16;99626.48;229410;1193;139629;-71
2021/10/20 06:28:43;;;;;;;11.00;6.50;;;;;;;12.83;76.11;99623.56;229354;1193;140884;-70
2021/10/20 06:33:47;;;;;;;10.90;7.30;;;;;;;12.98;76.07;99621.02;230603;1192;139973;-72
2021/10/20 06:38:54;;;;;;;10.40;6.30;;;;;;;13.11;76.06;99622.83;229115;1192;140219;-69
2021/10/20 06:44:08;;;;;;;6.10;5.50;;;;;;;13.22;75.78;99618.54;228280;1192;140190;-71
2021/10/20 06:49:44;;;;;;;7.00;5.90;;;;;;;13.31;75.72;99617.98;228340;1192;140309;-70
2021/10/20 06:55:20;;;;;;;6.60;5.60;;;;;;;13.43;75.47;99609.41;228941;1193;140444;-72
2021/10/20 07:00:48;;;;;;;7.10;6.00;;;;;;;13.56;75.06;99601.09;228486;1192;140287;-71
2021/10/20 07:06:26;;;;;;;;;;;;;;;;;;;;;
2021/10/20 07:11:38;;;;;;;10.70;7.00;;;;;;;13.77;75.01;99602.66;230936;1192;139888;-70
2021/10/20 07:17:10;;;;;;;;;;;;;;;;;;;;;
2021/10/20 07:22:39;;;;;;;;;;;;;;;;;;;;;
2021/10/20 07:27:52;;;;;;;7.90;6.20;;;;;;;14.18;74.46;99588.14;228021;1193;142225;-74
2021/10/20 07:33:11;;;;;;;6.30;5.30;;;;;;;14.34;74.27;99595.45;228429;1191;139877;-75
2021/10/20 07:38:23;;;;;;;7.30;6.10;;;;;;;14.46;73.98;99588.33;229844;1191;140210;-75
2021/10/20 07:43:34;;;;;;;9.00;5.70;;;;;;;14.64;73.97;99586.19;228878;1192;140383;-79
2021/10/20 07:48:45;;;;;;;6.20;5.50;;;;;;;14.79;73.66;99591.52;229075;1192;139226;-78
2021/10/20 07:53:55;;;;;;;6.80;5.10;;;;;;;14.88;73.35;99588.86;230195;1192;139293;-74
2021/10/20 07:59:03;;;;;;;5.30;4.80;;;;;;;14.96;73.13;99593.66;229717;1192;141844;-74
2021/10/20 08:04:07;;;;;;;7.10;6.00;;;;;;;15.04;72.94;99589.36;229001;1192;139744;-76
2021/10/20 08:09:19;;;;;;;7.20;5.80;;;;;;;15.08;72.69;99582.48;231216;1192;140231;-77
2021/10/20 08:14:30;;;;;;;6.10;4.90;;;;;;;15.17;72.62;99571.92;228598;1192;139693;-77
2021/10/20 08:20:09;;;;;;;6.90;4.90;;;;;;;15.30;72.46;99564.01;228636;1192;139216;-71
2021/10/20 08:25:38;;;;;;;;;;;;;;;;;;;;;
2021/10/20 08:31:24;;;;;;;6.40;5.10;;;;;;;15.54;72.01;99551.00;230399;1193;140066;-74
2021/10/20 08:36:38;;;;;;;7.10;4.70;;;;;;;15.66;71.82;99543.99;230610;1192;140050;-73
2021/10/20 08:42:10;;;;;;;7.30;4.60;;;;;;;15.80;71.70;99537.26;229066;1192;138996;-72
2021/10/20 08:48:02;;;;;;;;;;;;;;;;;;;;;
2021/10/20 08:53:12;;;;;;;5.20;4.50;;;;;;;16.06;71.07;99519.84;229021;1192;138915;-70
2021/10/20 08:58:17;;;;;;;7.30;4.80;;;;;;;16.15;70.73;99517.34;228925;1192;139564;-72
2021/10/20 09:03:21;;;;;;;6.90;5.00;;;;;;;16.30;70.68;99507.72;229749;1192;139678;-74
2021/10/20 09:09:09;;;;;;;;;;;;;;;;;;;;;
2021/10/20 09:14:54;;;;;;;7.50;5.80;;;;;;;16.62;70.32;99494.02;227865;1193;138917;-75
2021/10/20 09:20:28;;;;;;;6.70;4.80;;;;;;;16.80;70.03;99491.49;228408;1193;139756;-74
2021/10/20 09:26:16;;;;;;;9.70;5.80;;;;;;;16.94;69.77;99484.75;228439;1192;139394;-70
2021/10/20 09:31:44;;;;;;;7.70;4.60;;;;;;;17.07;69.46;99491.27;228529;1192;139235;-74
2021/10/20 09:36:59;;;;;;;4.20;3.80;;;;;;;17.22;69.33;99492.67;228163;1193;143226;-71
2021/10/20 09:42:35;;;;;;;6.90;5.20;;;;;;;17.38;69.05;99487.90;227985;1192;139402;-71
2021/10/20 09:48:13;;;;;;;5.40;4.90;;;;;;;17.49;68.74;99485.66;227779;1192;139513;-70
2021/10/20 09:53:19;;;;;;;7.20;5.40;;;;;;;17.65;68.49;99478.13;227701;1187;139228;-71
2021/10/20 09:58:45;;;;;;;;;;;;;;;;;;;;;
2021/10/20 10:04:07;;;;;;;;;;;;;;;;;;;;;
2021/10/20 10:10:09;;;;;;;5.20;4.20;;;;;;;18.25;67.73;99464.05;229726;1192;140376;-73
2021/10/20 10:15:18;;;;;;;5.50;4.00;;;;;;;18.40;67.13;99453.93;228426;1193;139720;-72
2021/10/20 10:20:31;;;;;;;9.00;4.70;;;;;;;18.47;66.70;99447.95;230947;1192;139676;-72
2021/10/20 10:25:40;;;;;;;;;;;;;;;18.66;66.70;99431.21;231344;1191;140912;-72
2021/10/20 10:30:47;;;;;;;5.30;4.50;;;;;;;18.82;66.22;99424.68;231458;1192;234727;-70
2021/10/20 10:36:21;;;;;;;;;;;;;;;;;;;;;
2021/10/20 10:41:50;;;;;;;5.60;4.60;;;;;;;19.07;65.51;99401.83;231396;1191;125691;-71
2021/10/20 10:47:26;;;;;;;9.00;5.30;;;;;;;19.08;64.96;99397.37;230214;1191;138908;-73
2021/10/20 10:52:37;;;;;;;6.90;4.70;;;;;;;19.16;64.71;99397.98;231099;1191;138958;-71
2021/10/20 10:58:33;;;;;;;;;;;;;;;;;;;;;
2021/10/20 11:04:38;;;;;;;6.00;5.00;;;;;;;19.63;64.15;99387.65;229004;1192;138900;-72
2021/10/20 11:10:23;;;;;;;8.20;3.90;;;;;;;19.81;63.78;99383.17;228676;1192;140427;-71
2021/10/20 11:16:02;;;;;;;4.80;3.90;;;;;;;19.73;63.16;99376.69;229613;1192;139116;-71
2021/10/20 11:21:51;;;;;;;6.10;4.70;;;;;;;19.69;62.98;99362.81;228629;1192;139873;-71
2021/10/20 11:27:20;;;;;;;5.90;3.80;;;;;;;19.65;62.87;99357.96;228617;1192;140719;-71
2021/10/20 11:33:08;;;;;;;4.60;3.20;;;;;;;19.64;62.69;99340.27;228383;1192;139306;-72
2021/10/20 11:38:19;;;;;;;5.60;4.10;;;;;;;19.57;62.43;99337.39;227622;1193;139916;-71
2021/10/20 11:44:05;;;;;;;5.60;4.00;;;;;;;19.70;62.46;99326.39;229283;1192;139380;-71
2021/10/20 11:49:28;;;;;;;;;;;;;;;;;;;;;
2021/10/20 11:55:13;;;;;;;;;;;;;;;;;;;;;
2021/10/20 12:00:20;;;;;;;6.00;3.50;;;;;;;20.22;61.32;99286.25;231051;1192;139948;-71
2021/10/20 12:05:32;;;;;;;5.60;3.90;;;;;;;20.26;60.91;99272.55;229280;1192;139099;-71
2021/10/20 12:11:17;;;;;;;4.80;3.30;;;;;;;20.27;60.51;99261.71;228396;1192;139079;-71
2021/10/20 12:17:00;;;;;;;3.50;3.20;;;;;;;20.47;60.46;99258.73;229749;1191;140287;-71
2021/10/20 12:22:41;;;;;;;3.30;3.10;;;;;;;20.70;60.19;99248.95;230866;1191;139719;-71
2021/10/20 12:27:45;;;;;;;3.60;3.40;;;;;;;20.73;59.71;99238.96;229788;1191;206983;-72
2021/10/20 12:33:09;;;;;;;;;;;;;;;;;;;;;
2021/10/20 12:38:23;;;;;;;3.90;3.10;;;;;;;20.59;59.07;99217.30;228538;1192;139656;-70
2021/10/20 12:43:41;;;;;;;3.20;2.70;;;;;;;20.41;58.67;99204.75;228756;1192;139619;-71
2021/10/20 12:49:10;;;;;;;3.00;2.70;;;;;;;20.28;58.53;99194.62;231128;1191;140025;-71
2021/10/20 12:54:21;;;;;;;2.30;2.10;;;;;;;20.23;58.32;99180.30;228796;1192;138923;-71
2021/10/20 12:59:50;;;;;;;3.00;2.40;;;;;;;20.21;58.25;99181.38;228494;1192;139561;-70
2021/10/20 13:11:00;;;;;;;3.90;2.90;;;;;;;19.86;58.42;99171.52;228081;1192;139575;-71
2021/10/20 13:16:39;;;;;;;6.30;2.50;;;;;;;19.69;58.57;99167.25;227919;1192;139655;-71
2021/10/20 13:22:10;;;;;;;;;;;;;;;;;;;;;
2021/10/20 13:27:32;;;;;;;3.80;3.40;;;;;;;19.33;59.06;99153.33;228052;1192;140828;-70
2021/10/20 13:32:40;;;;;;;3.60;3.20;;;;;;;19.18;59.43;99153.21;227972;1192;139026;-76
2021/10/20 13:38:08;;;;;;;;;;;;;;;;;;;;;
2021/10/20 13:44:04;;;;;;;4.00;2.60;;;;;;;18.98;59.80;99148.89;228757;1191;139802;-70
2021/10/20 13:49:10;;;;;;;3.80;2.70;;;;;;;18.87;59.78;99133.11;229327;1193;139127;-71
2021/10/20 13:54:30;;;;;;;;;;;;;;;;;;;;;
2021/10/20 14:00:00;;;;;;;4.70;3.10;;;;;;;18.78;60.24;99130.06;228553;1192;140217;-71
2021/10/20 14:05:54;;;;;;;8.90;3.20;;;;;;;18.79;60.32;99127.81;228729;1192;139344;-71
2021/10/20 14:11:33;;;;;;;;;;;;;;;;;;;;;
2021/10/20 14:16:46;;;;;;;8.40;3.20;;;;;;;18.68;60.68;99099.13;229893;1192;139882;-73
2021/10/20 14:21:59;;;;;;;5.80;3.20;;;;;;;18.62;60.88;99099.84;228975;1192;139484;-70
2021/10/20 14:28:07;;;;;;;6.70;3.90;;;;;;;18.58;60.83;99092.73;229008;1192;138893;-73
2021/10/20 14:33:34;;;;;;;;;;;;;;;;;;;;;
2021/10/20 14:38:49;;;;;;;;;;;;;;;;;;;;;
2021/10/20 14:44:06;;;;;;;5.00;3.10;;;;;;;18.33;60.92;99060.80;231137;1191;139379;-76
2021/10/20 14:49:24;;;;;;;7.00;3.90;;;;;;;18.21;60.89;99057.44;230266;1191;139452;-75
2021/10/20 14:54:32;;;;;;;13.00;4.60;;;;;;;18.12;60.89;99056.70;230224;1191;140162;-74
2021/10/20 14:59:39;;;;;;;5.00;4.50;;;;;;;18.03;60.88;99045.94;231231;1191;139019;-70
2021/10/20 15:04:45;;;;;;;6.00;3.60;;;;;;;17.95;61.01;99036.62;230220;1191;138876;-70
2021/10/20 15:10:31;;;;;;;;;;;;;;;;;;;;;
2021/10/20 15:15:59;;;;;;;6.10;3.50;;;;;;;17.72;61.09;99026.48;228158;1192;139587;-72
2021/10/20 15:21:57;;;;;;;;;;;;;;;;;;;;;
2021/10/20 15:27:15;;;;;;;;;;;;;;;;;;;;;
2021/10/20 15:32:32;;;;;;;12.20;4.50;;;;;;;17.35;61.50;99030.90;229003;1192;125191;-71
2021/10/20 15:38:11;;;;;;;;;;;;;;;;;;;;;
2021/10/20 15:43:36;;;;;;;4.60;4.00;;;;;;;17.20;61.60;99025.16;228813;1192;138918;-76
2021/10/20 15:49:03;;;;;;;5.60;4.70;;;;;;;17.11;61.61;99021.17;228985;1193;139468;-71
2021/10/20 15:54:15;;;;;;;5.60;5.00;;;;;;;17.03;61.73;99019.86;228231;1192;139114;-70
2021/10/20 15:59:42;;;;;;;6.30;5.00;;;;;;;16.95;61.87;99010.98;227935;1192;140090;-72
2021/10/20 16:05:00;;;;;;;7.40;5.30;;;;;;;16.90;61.95;99002.13;229178;1191;141705;-70
2021/10/20 16:16:05;;;;;;;6.10;5.40;;;;;;;16.89;62.01;99003.60;228758;1191;138840;-72
2021/10/20 16:21:48;;;;;;;;;;;;;;;;;;;;;
2021/10/20 16:27:04;;;;;;;6.50;5.30;;;;;;;16.84;62.03;99013.21;227836;1192;141166;-69
2021/10/20 16:33:11;;;;;;;9.10;5.40;;;;;;;16.81;62.22;99013.05;227953;1192;138841;-71
2021/10/20 16:39:08;;;;;;;6.70;5.90;;;;;;;16.75;62.19;99014.55;230262;1191;139890;-73
2021/10/20 16:44:44;;;;;;;9.80;5.80;;;;;;;16.70;62.34;99019.20;229097;1189;139864;-70
2021/10/20 16:49:47;;;;;;;7.00;5.50;;;;;;;16.68;62.34;99016.32;230851;1192;140706;-68
2021/10/20 16:54:51;;;;;;;6.90;6.10;;;;;;;16.66;62.17;99015.69;230802;1193;139612;-70
2021/10/20 16:59:55;;;;;;;6.70;5.60;;;;;;;16.62;62.21;99010.95;230946;1192;139039;-69
2021/10/20 17:05:13;;;;;;;8.40;5.80;;;;;;;16.57;62.28;98998.63;229645;1186;138912;-70
2021/10/20 17:10:51;;;;;;;9.50;6.50;;;;;;;16.53;62.11;98998.09;228482;1192;139821;-71
2021/10/20 17:16:02;;;;;;;6.40;5.30;;;;;;;16.43;62.01;98993.89;228973;1192;140039;-72
2021/10/20 17:21:10;;;;;;;7.70;6.20;;;;;;;16.32;62.04;98982.68;230014;1192;139173;-72
2021/10/20 17:26:38;;;;;;;13.90;6.40;;;;;;;16.22;61.97;98970.84;229705;1192;140050;-72
2021/10/20 17:37:36;;;;;;;7.20;6.30;;;;;;;16.07;62.05;98958.14;229911;1211;683508;-72
2021/10/20 17:42:47;;;;;;;9.00;5.90;;;;;;;15.98;62.05;98946.04;227846;1196;138316;-70
2021/10/20 17:48:51;;;;;;;9.70;5.20;;;;;;;15.96;62.07;98953.81;226264;1197;138021;-71
2021/10/20 17:54:39;;;;;;;8.40;6.30;;;;;;;15.92;61.88;98944.83;226491;1196;140239;-71
2021/10/20 18:00:18;;;;;;;;;;;;;;;;;;;;;
2021/10/20 18:05:50;;;;;;;;;;;;;;;;;;;;;
2021/10/20 18:11:11;;;;;;;;;;;;;;;;;;;;;
2021/10/20 18:16:48;;;;;;;7.20;5.80;;;;;;;15.79;61.47;98928.08;227740;1193;137869;-71
2021/10/20 18:22:32;;;;;;;6.70;5.60;;;;;;;15.73;61.47;98916.48;228530;1193;138791;-71
2021/10/20 18:28:10;;;;;;;;;;;;;;;;;;;;;
2021/10/20 18:33:54;;;;;;;6.50;5.30;;;;;;;15.61;61.43;98899.38;227957;1193;139514;-71
2021/10/20 18:39:02;;;;;;;8.30;5.60;;;;;;;15.54;61.44;98892.91;227773;1193;138796;-71
2021/10/20 18:44:49;;;;;;;;;;;;;;;;;;;;;
2021/10/20 18:50:42;;;;;;;10.10;6.60;;;;;;;15.38;61.45;98896.03;229621;1193;139639;-71
2021/10/20 18:55:46;;;;;;;11.00;5.40;;;;;;;15.30;61.65;98894.41;230377;1193;139973;-71
2021/10/20 19:00:50;;;;;;;7.70;6.20;;;;;;;15.27;61.57;98883.60;230437;1193;139115;-71
2021/10/20 19:06:33;;;;;;;6.70;5.30;;;;;;;15.26;61.53;98871.38;230589;1193;138987;-71
2021/10/20 19:11:37;;;;;;;9.30;6.00;;;;;;;15.23;61.42;98873.77;229511;1186;139549;-71
2021/10/20 19:17:33;;;;;;;10.50;5.50;;;;;;;15.21;61.43;98868.31;228525;1193;140479;-71
2021/10/20 19:23:02;;;;;;;10.90;5.30;;;;;;;15.18;61.37;98868.73;227951;1193;138634;-72
2021/10/20 19:28:24;;;;;;;;;;;;;;;;;;;;;
2021/10/20 19:34:01;;;;;;;7.30;5.40;;;;;;;15.13;61.21;98865.02;228208;1193;140057;-71
2021/10/20 19:39:14;;;;;;;6.20;5.30;;;;;;;15.11;61.14;98854.61;228432;1193;138461;-71
2021/10/20 19:45:08;;;;;;;;;;;;;;;;;;;;;
2021/10/20 19:51:14;;;;;;;7.90;6.00;;;;;;;15.12;60.96;98848.60;227793;1193;139860;-71
2021/10/20 19:56:44;;;;;;;7.90;5.30;;;;;;;15.15;60.86;98845.34;228045;1193;139040;-71
2021/10/20 20:02:38;;;;;;;7.00;5.50;;;;;;;15.16;60.69;98846.77;227348;1193;139228;-71
2021/10/20 20:08:12;;;;;;;9.50;5.90;;;;;;;15.17;60.62;98822.34;227398;1193;138740;-71
2021/10/20 20:14:08;;;;;;;;;;;;;;;;;;;;;
2021/10/20 20:19:36;;;;;;;7.60;5.50;;;;;;;15.19;60.44;98839.29;227246;1194;141021;-71
2021/10/20 20:25:20;;;;;;;8.50;6.10;;;;;;;15.19;60.35;98840.85;228692;1193;138193;-71
2021/10/20 20:30:25;;;;;;;9.40;6.40;;;;;;;15.18;60.37;98832.21;230313;1193;138589;-71
2021/10/20 20:35:29;;;;;;;10.40;7.40;;;;;;;15.20;60.29;98828.60;229316;1193;138299;-72
2021/10/20 20:41:07;;;;;;;9.60;5.30;;;;;;;15.22;60.32;98828.79;228645;1193;139949;-71
2021/10/20 20:46:24;;;;;;;;;;;;;;;;;;;;;
2021/10/20 20:51:28;;;;;;;8.30;5.90;;;;;;;15.24;60.24;98827.21;230191;1193;138696;-72
2021/10/20 20:56:32;;;;;;;8.80;6.00;;;;;;;15.21;60.16;98823.00;230041;1193;138540;-71
2021/10/20 21:02:04;;;;;;;7.70;5.60;;;;;;;15.21;60.24;98817.41;228842;1193;139477;-71
2021/10/20 21:07:52;;;;;;;7.80;6.40;;;;;;;15.21;60.01;98821.23;228098;1193;140346;-71
2021/10/20 21:13:31;;;;;;;6.60;6.00;;;;;;;15.18;60.17;98816.48;229350;1193;138561;-70
2021/10/20 21:19:04;;;;;;;7.70;6.00;;;;;;;15.12;60.09;98831.20;228043;1194;138636;-70
2021/10/20 21:24:38;;;;;;;;;;;;;;;;;;;;;
2021/10/20 21:29:42;;;;;;;8.40;7.10;;;;;;;15.08;60.15;98822.44;228092;1193;138505;-70
2021/10/20 21:35:45;;;;;;;;;;;;;;;;;;;;;
2021/10/20 21:41:31;;;;;;;7.60;6.60;;;;;;;15.00;60.03;98804.11;227721;1193;138558;-71
2021/10/20 21:46:37;;;;;;;9.30;6.70;;;;;;;14.97;60.13;98801.11;229035;1192;156773;-72
2021/10/20 21:52:13;;;;;;;8.40;6.80;;;;;;;14.94;60.09;98797.93;228387;1187;140748;-71
2021/10/20 21:58:01;;;;;;;12.80;7.00;;;;;;;14.86;60.21;98784.42;228338;1193;138505;-71
2021/10/20 22:03:41;;;;;;;8.00;7.00;;;;;;;14.79;60.24;98785.41;228696;1192;141111;-70
2021/10/20 22:08:50;;;;;;;8.60;5.30;;;;;;;14.72;60.32;98778.52;228686;1192;139472;-72
2021/10/20 22:14:17;;;;;;;10.20;6.70;;;;;;;14.66;60.35;98789.70;228192;1192;139561;-71
2021/10/20 22:19:37;;;;;;;8.10;6.90;;;;;;;14.60;60.37;98785.58;228101;1192;138897;-71
2021/10/20 22:25:28;;;;;;;9.00;5.00;;;;;;;14.56;60.38;98778.38;228450;1192;138251;-71
2021/10/20 22:31:17;;;;;;;9.00;6.20;;;;;;;14.47;60.45;98774.48;228080;1187;140663;-71
2021/10/20 22:36:56;;;;;;;;;;;;;;;;;;;;;
2021/10/20 22:42:20;;;;;;;8.00;6.60;;;;;;;14.33;60.82;98772.52;229225;1192;138516;-71
2021/10/20 22:48:12;;;;;;;;;;;;;;;;;;;;;
2021/10/20 22:53:16;;;;;;;8.80;6.20;;;;;;;14.31;61.02;98770.65;228553;1193;139037;-71
2021/10/20 22:58:27;;;;;;;10.00;7.80;;;;;;;14.35;61.04;98761.93;231069;1192;139748;-71
2021/10/20 23:04:24;;;;;;;;;;;;;;;;;;;;;
2021/10/20 23:10:09;;;;;;;12.90;7.80;;;;;;;14.33;60.90;98744.41;230372;1192;139215;-71
2021/10/20 23:15:48;;;;;;;;;;;;;;;;;;;;;
2021/10/20 23:21:53;;;;;;;9.50;7.00;;;;;;;14.23;61.01;98717.80;227721;1193;139428;-70
2021/10/20 23:27:05;;;;;;;9.50;6.80;;;;;;;14.14;60.93;98708.23;227817;1192;139874;-71
2021/10/20 23:33:11;;;;;;;11.00;7.70;;;;;;;14.07;61.02;98703.00;228091;1192;141143;-70
2021/10/20 23:38:42;;;;;;;9.90;7.00;;;;;;;14.01;61.48;98699.05;228783;1192;140866;-69
2021/10/20 23:44:19;;;;;;;7.40;6.80;;;;;;;13.96;61.38;98688.48;228034;1192;140171;-70
2021/10/20 23:49:37;;;;;;;9.10;8.00;;;;;;;13.90;61.46;98684.40;228816;1192;138956;-71
2021/10/20 23:55:11;;;;;;;;;;;;;;;;;;;;;
